sensor_id;sensor_type;location;lat;lon;timestamp;P1;durP1;ratioP1;P2;durP2;ratioP2
51382;SDS011;37475;43.358;1.248;2023-03-23T00:00:11;8.52;;;2.35;;
51382;SDS011;37475;43.358;1.248;2023-03-23T00:02:38;7.45;;;2.15;;
51382;SDS011;37475;43.358;1.248;2023-03-23T00:05:05;10.07;;;2.30;;
51382;SDS011;37475;43.358;1.248;2023-03-23T00:07:32;5.43;;;2.00;;
51382;SDS011;37475;43.358;1.248;2023-03-23T00:09:59;5.25;;;2.08;;
51382;SDS011;37475;43.358;1.248;2023-03-23T00:12:28;10.48;;;2.40;;
51382;SDS011;37475;43.358;1.248;2023-03-23T00:15:03;9.43;;;2.72;;
51382;SDS011;37475;43.358;1.248;2023-03-23T00:17:32;5.47;;;2.17;;
51382;SDS011;37475;43.358;1.248;2023-03-23T00:19:58;4.45;;;2.30;;
51382;SDS011;37475;43.358;1.248;2023-03-23T00:22:26;4.00;;;2.35;;
51382;SDS011;37475;43.358;1.248;2023-03-23T00:24:53;5.25;;;2.08;;
51382;SDS011;37475;43.358;1.248;2023-03-23T00:27:20;5.22;;;2.03;;
51382;SDS011;37475;43.358;1.248;2023-03-23T00:29:47;5.32;;;2.03;;
51382;SDS011;37475;43.358;1.248;2023-03-23T00:32:20;6.57;;;2.40;;
51382;SDS011;37475;43.358;1.248;2023-03-23T00:34:52;6.10;;;2.20;;
51382;SDS011;37475;43.358;1.248;2023-03-23T00:37:23;7.35;;;2.28;;
51382;SDS011;37475;43.358;1.248;2023-03-23T00:39:50;9.90;;;2.50;;
51382;SDS011;37475;43.358;1.248;2023-03-23T00:42:16;4.93;;;2.28;;
51382;SDS011;37475;43.358;1.248;2023-03-23T00:44:43;4.38;;;2.10;;
51382;SDS011;37475;43.358;1.248;2023-03-23T00:47:09;4.65;;;1.80;;
51382;SDS011;37475;43.358;1.248;2023-03-23T00:49:37;5.00;;;2.20;;
51382;SDS011;37475;43.358;1.248;2023-03-23T00:52:04;6.65;;;2.00;;
51382;SDS011;37475;43.358;1.248;2023-03-23T00:54:31;5.68;;;2.10;;
51382;SDS011;37475;43.358;1.248;2023-03-23T00:56:59;5.93;;;2.42;;
51382;SDS011;37475;43.358;1.248;2023-03-23T00:59:25;7.03;;;2.25;;
51382;SDS011;37475;43.358;1.248;2023-03-23T01:01:51;6.95;;;2.40;;
51382;SDS011;37475;43.358;1.248;2023-03-23T01:04:17;5.45;;;2.40;;
51382;SDS011;37475;43.358;1.248;2023-03-23T01:06:43;6.68;;;2.60;;
51382;SDS011;37475;43.358;1.248;2023-03-23T01:09:13;8.07;;;2.50;;
51382;SDS011;37475;43.358;1.248;2023-03-23T01:11:42;5.45;;;2.72;;
51382;SDS011;37475;43.358;1.248;2023-03-23T01:14:09;9.00;;;3.30;;
51382;SDS011;37475;43.358;1.248;2023-03-23T01:16:37;4.90;;;2.47;;
51382;SDS011;37475;43.358;1.248;2023-03-23T01:19:03;18.70;;;3.22;;
51382;SDS011;37475;43.358;1.248;2023-03-23T01:21:29;15.63;;;3.10;;
51382;SDS011;37475;43.358;1.248;2023-03-23T01:23:55;14.48;;;2.65;;
51382;SDS011;37475;43.358;1.248;2023-03-23T01:26:22;5.28;;;2.40;;
51382;SDS011;37475;43.358;1.248;2023-03-23T01:28:50;8.35;;;2.80;;
51382;SDS011;37475;43.358;1.248;2023-03-23T01:31:17;17.42;;;2.92;;
51382;SDS011;37475;43.358;1.248;2023-03-23T01:33:46;15.18;;;3.05;;
51382;SDS011;37475;43.358;1.248;2023-03-23T01:36:16;7.55;;;3.00;;
51382;SDS011;37475;43.358;1.248;2023-03-23T01:38:46;7.43;;;3.38;;
51382;SDS011;37475;43.358;1.248;2023-03-23T01:41:13;7.68;;;3.20;;
51382;SDS011;37475;43.358;1.248;2023-03-23T01:46:34;6.43;;;2.97;;
51382;SDS011;37475;43.358;1.248;2023-03-23T01:49:02;11.23;;;3.40;;
51382;SDS011;37475;43.358;1.248;2023-03-23T01:51:35;7.07;;;3.17;;
51382;SDS011;37475;43.358;1.248;2023-03-23T01:54:14;8.93;;;3.47;;
51382;SDS011;37475;43.358;1.248;2023-03-23T01:56:47;8.43;;;3.30;;
51382;SDS011;37475;43.358;1.248;2023-03-23T01:59:24;9.98;;;3.55;;
51382;SDS011;37475;43.358;1.248;2023-03-23T02:01:52;8.18;;;3.60;;
51382;SDS011;37475;43.358;1.248;2023-03-23T02:04:19;8.77;;;3.70;;
51382;SDS011;37475;43.358;1.248;2023-03-23T02:06:48;6.18;;;3.40;;
51382;SDS011;37475;43.358;1.248;2023-03-23T02:09:16;8.35;;;3.30;;
51382;SDS011;37475;43.358;1.248;2023-03-23T02:11:44;5.75;;;3.10;;
51382;SDS011;37475;43.358;1.248;2023-03-23T02:14:11;7.43;;;3.20;;
51382;SDS011;37475;43.358;1.248;2023-03-23T02:17:00;8.85;;;3.70;;
51382;SDS011;37475;43.358;1.248;2023-03-23T02:26:16;9.35;;;3.92;;
51382;SDS011;37475;43.358;1.248;2023-03-23T02:35:30;8.27;;;3.65;;
51382;SDS011;37475;43.358;1.248;2023-03-23T02:38:08;7.80;;;3.90;;
51382;SDS011;37475;43.358;1.248;2023-03-23T02:40:42;8.02;;;3.88;;
51382;SDS011;37475;43.358;1.248;2023-03-23T02:43:13;10.00;;;4.35;;
51382;SDS011;37475;43.358;1.248;2023-03-23T02:45:44;8.05;;;3.72;;
51382;SDS011;37475;43.358;1.248;2023-03-23T02:48:12;10.10;;;4.95;;
51382;SDS011;37475;43.358;1.248;2023-03-23T02:50:44;7.60;;;4.65;;
51382;SDS011;37475;43.358;1.248;2023-03-23T02:53:13;8.20;;;4.68;;
51382;SDS011;37475;43.358;1.248;2023-03-23T02:55:45;8.70;;;4.55;;
51382;SDS011;37475;43.358;1.248;2023-03-23T02:58:13;9.93;;;4.60;;
51382;SDS011;37475;43.358;1.248;2023-03-23T03:00:40;10.98;;;4.70;;
51382;SDS011;37475;43.358;1.248;2023-03-23T03:03:09;10.57;;;4.63;;
51382;SDS011;37475;43.358;1.248;2023-03-23T03:05:49;7.75;;;4.63;;
51382;SDS011;37475;43.358;1.248;2023-03-23T03:11:25;9.63;;;4.90;;
51382;SDS011;37475;43.358;1.248;2023-03-23T03:13:59;12.65;;;5.10;;
51382;SDS011;37475;43.358;1.248;2023-03-23T03:19:52;8.82;;;5.20;;
51382;SDS011;37475;43.358;1.248;2023-03-23T03:22:23;8.35;;;4.85;;
51382;SDS011;37475;43.358;1.248;2023-03-23T03:24:53;9.90;;;5.45;;
51382;SDS011;37475;43.358;1.248;2023-03-23T03:27:22;23.85;;;5.93;;
51382;SDS011;37475;43.358;1.248;2023-03-23T03:29:51;11.90;;;5.63;;
51382;SDS011;37475;43.358;1.248;2023-03-23T03:32:24;8.52;;;5.35;;
51382;SDS011;37475;43.358;1.248;2023-03-23T03:35:03;10.20;;;5.57;;
51382;SDS011;37475;43.358;1.248;2023-03-23T03:37:37;11.90;;;6.05;;
51382;SDS011;37475;43.358;1.248;2023-03-23T03:40:08;12.88;;;5.95;;
51382;SDS011;37475;43.358;1.248;2023-03-23T03:42:42;14.55;;;6.22;;
51382;SDS011;37475;43.358;1.248;2023-03-23T03:45:10;11.25;;;6.28;;
51382;SDS011;37475;43.358;1.248;2023-03-23T03:47:44;13.98;;;6.28;;
51382;SDS011;37475;43.358;1.248;2023-03-23T03:50:10;13.77;;;6.57;;
51382;SDS011;37475;43.358;1.248;2023-03-23T03:52:37;16.67;;;6.47;;
51382;SDS011;37475;43.358;1.248;2023-03-23T03:55:04;14.45;;;7.38;;
51382;SDS011;37475;43.358;1.248;2023-03-23T03:57:32;14.73;;;7.22;;
51382;SDS011;37475;43.358;1.248;2023-03-23T03:59:58;13.32;;;7.28;;
51382;SDS011;37475;43.358;1.248;2023-03-23T04:02:24;16.30;;;6.97;;
51382;SDS011;37475;43.358;1.248;2023-03-23T04:04:50;15.55;;;8.02;;
51382;SDS011;37475;43.358;1.248;2023-03-23T04:07:17;16.95;;;8.13;;
51382;SDS011;37475;43.358;1.248;2023-03-23T04:09:44;14.27;;;8.30;;
51382;SDS011;37475;43.358;1.248;2023-03-23T04:12:12;16.23;;;8.73;;
51382;SDS011;37475;43.358;1.248;2023-03-23T04:14:39;13.43;;;8.35;;
51382;SDS011;37475;43.358;1.248;2023-03-23T04:17:05;14.55;;;8.40;;
51382;SDS011;37475;43.358;1.248;2023-03-23T04:19:34;16.58;;;8.75;;
51382;SDS011;37475;43.358;1.248;2023-03-23T04:22:01;16.92;;;8.57;;
51382;SDS011;37475;43.358;1.248;2023-03-23T04:24:29;18.05;;;8.40;;
51382;SDS011;37475;43.358;1.248;2023-03-23T04:26:58;18.63;;;9.30;;
51382;SDS011;37475;43.358;1.248;2023-03-23T04:29:24;15.13;;;8.70;;
51382;SDS011;37475;43.358;1.248;2023-03-23T04:31:51;15.65;;;8.50;;
51382;SDS011;37475;43.358;1.248;2023-03-23T04:34:17;19.55;;;9.45;;
51382;SDS011;37475;43.358;1.248;2023-03-23T04:36:43;17.90;;;8.65;;
51382;SDS011;37475;43.358;1.248;2023-03-23T04:39:11;17.27;;;9.20;;
51382;SDS011;37475;43.358;1.248;2023-03-23T04:41:38;17.75;;;9.35;;
51382;SDS011;37475;43.358;1.248;2023-03-23T04:44:05;16.48;;;9.07;;
51382;SDS011;37475;43.358;1.248;2023-03-23T04:46:32;16.70;;;9.40;;
51382;SDS011;37475;43.358;1.248;2023-03-23T04:48:59;19.80;;;9.55;;
51382;SDS011;37475;43.358;1.248;2023-03-23T04:51:25;17.45;;;9.65;;
51382;SDS011;37475;43.358;1.248;2023-03-23T04:53:53;21.08;;;9.90;;
51382;SDS011;37475;43.358;1.248;2023-03-23T04:56:20;21.13;;;10.30;;
51382;SDS011;37475;43.358;1.248;2023-03-23T04:58:46;20.20;;;10.00;;
51382;SDS011;37475;43.358;1.248;2023-03-23T05:01:12;18.20;;;10.25;;
51382;SDS011;37475;43.358;1.248;2023-03-23T05:03:39;18.05;;;11.05;;
51382;SDS011;37475;43.358;1.248;2023-03-23T05:06:06;17.48;;;10.70;;
51382;SDS011;37475;43.358;1.248;2023-03-23T05:08:32;21.00;;;11.05;;
51382;SDS011;37475;43.358;1.248;2023-03-23T05:10:59;19.98;;;11.35;;
51382;SDS011;37475;43.358;1.248;2023-03-23T05:13:28;21.58;;;11.45;;
51382;SDS011;37475;43.358;1.248;2023-03-23T05:15:54;18.45;;;11.98;;
51382;SDS011;37475;43.358;1.248;2023-03-23T05:18:20;22.80;;;11.30;;
51382;SDS011;37475;43.358;1.248;2023-03-23T05:20:47;20.38;;;11.25;;
51382;SDS011;37475;43.358;1.248;2023-03-23T05:23:13;22.00;;;12.30;;
51382;SDS011;37475;43.358;1.248;2023-03-23T05:25:40;19.95;;;11.90;;
51382;SDS011;37475;43.358;1.248;2023-03-23T05:28:09;24.10;;;11.45;;
51382;SDS011;37475;43.358;1.248;2023-03-23T05:30:37;19.90;;;11.15;;
51382;SDS011;37475;43.358;1.248;2023-03-23T05:33:04;22.45;;;12.13;;
51382;SDS011;37475;43.358;1.248;2023-03-23T05:35:30;23.17;;;12.50;;
51382;SDS011;37475;43.358;1.248;2023-03-23T05:37:56;21.95;;;12.63;;
51382;SDS011;37475;43.358;1.248;2023-03-23T05:40:22;22.45;;;12.60;;
51382;SDS011;37475;43.358;1.248;2023-03-23T05:42:50;28.80;;;13.38;;
51382;SDS011;37475;43.358;1.248;2023-03-23T05:45:18;26.35;;;13.10;;
51382;SDS011;37475;43.358;1.248;2023-03-23T05:47:44;21.92;;;12.38;;
51382;SDS011;37475;43.358;1.248;2023-03-23T05:50:10;23.35;;;13.13;;
51382;SDS011;37475;43.358;1.248;2023-03-23T05:52:37;23.33;;;12.98;;
51382;SDS011;37475;43.358;1.248;2023-03-23T05:55:04;22.75;;;12.75;;
51382;SDS011;37475;43.358;1.248;2023-03-23T05:57:31;26.35;;;13.30;;
51382;SDS011;37475;43.358;1.248;2023-03-23T05:59:57;27.27;;;12.52;;
51382;SDS011;37475;43.358;1.248;2023-03-23T06:02:23;23.02;;;13.13;;
51382;SDS011;37475;43.358;1.248;2023-03-23T06:04:53;25.77;;;13.23;;
51382;SDS011;37475;43.358;1.248;2023-03-23T06:07:23;23.23;;;13.27;;
51382;SDS011;37475;43.358;1.248;2023-03-23T06:09:50;25.85;;;14.45;;
51382;SDS011;37475;43.358;1.248;2023-03-23T06:12:17;25.70;;;14.73;;
51382;SDS011;37475;43.358;1.248;2023-03-23T06:14:47;23.63;;;14.18;;
51382;SDS011;37475;43.358;1.248;2023-03-23T06:17:14;22.88;;;13.25;;
51382;SDS011;37475;43.358;1.248;2023-03-23T06:19:42;29.35;;;14.20;;
51382;SDS011;37475;43.358;1.248;2023-03-23T06:22:08;26.13;;;14.07;;
51382;SDS011;37475;43.358;1.248;2023-03-23T06:24:35;26.65;;;14.55;;
51382;SDS011;37475;43.358;1.248;2023-03-23T06:27:01;24.23;;;14.45;;
51382;SDS011;37475;43.358;1.248;2023-03-23T06:29:27;32.78;;;15.20;;
51382;SDS011;37475;43.358;1.248;2023-03-23T06:31:58;30.88;;;14.57;;
51382;SDS011;37475;43.358;1.248;2023-03-23T06:36:53;24.23;;;13.85;;
51382;SDS011;37475;43.358;1.248;2023-03-23T06:39:18;24.45;;;14.45;;
51382;SDS011;37475;43.358;1.248;2023-03-23T06:41:44;26.38;;;13.98;;
51382;SDS011;37475;43.358;1.248;2023-03-23T06:44:10;26.27;;;14.98;;
51382;SDS011;37475;43.358;1.248;2023-03-23T06:46:38;25.02;;;13.90;;
51382;SDS011;37475;43.358;1.248;2023-03-23T06:49:06;25.98;;;14.98;;
51382;SDS011;37475;43.358;1.248;2023-03-23T06:51:32;30.02;;;14.80;;
51382;SDS011;37475;43.358;1.248;2023-03-23T06:53:58;28.40;;;14.57;;
51382;SDS011;37475;43.358;1.248;2023-03-23T06:56:25;23.88;;;13.63;;
51382;SDS011;37475;43.358;1.248;2023-03-23T06:58:51;27.35;;;13.63;;
51382;SDS011;37475;43.358;1.248;2023-03-23T07:01:17;23.02;;;12.32;;
51382;SDS011;37475;43.358;1.248;2023-03-23T07:03:44;23.52;;;13.07;;
51382;SDS011;37475;43.358;1.248;2023-03-23T07:06:10;21.70;;;12.13;;
51382;SDS011;37475;43.358;1.248;2023-03-23T07:08:37;20.67;;;12.50;;
51382;SDS011;37475;43.358;1.248;2023-03-23T07:11:03;23.02;;;12.85;;
51382;SDS011;37475;43.358;1.248;2023-03-23T07:13:29;21.33;;;11.88;;
51382;SDS011;37475;43.358;1.248;2023-03-23T07:15:55;24.80;;;12.65;;
51382;SDS011;37475;43.358;1.248;2023-03-23T07:18:22;22.15;;;12.05;;
51382;SDS011;37475;43.358;1.248;2023-03-23T07:20:51;24.30;;;13.23;;
51382;SDS011;37475;43.358;1.248;2023-03-23T07:23:18;24.23;;;11.95;;
51382;SDS011;37475;43.358;1.248;2023-03-23T07:25:44;22.38;;;12.35;;
51382;SDS011;37475;43.358;1.248;2023-03-23T07:28:12;21.58;;;11.35;;
51382;SDS011;37475;43.358;1.248;2023-03-23T07:30:38;21.05;;;11.70;;
51382;SDS011;37475;43.358;1.248;2023-03-23T07:33:05;21.98;;;12.02;;
51382;SDS011;37475;43.358;1.248;2023-03-23T07:35:32;20.45;;;11.38;;
51382;SDS011;37475;43.358;1.248;2023-03-23T07:37:59;21.38;;;12.10;;
51382;SDS011;37475;43.358;1.248;2023-03-23T07:40:26;20.25;;;12.07;;
51382;SDS011;37475;43.358;1.248;2023-03-23T07:42:53;19.98;;;12.10;;
51382;SDS011;37475;43.358;1.248;2023-03-23T07:45:21;21.60;;;11.70;;
51382;SDS011;37475;43.358;1.248;2023-03-23T07:47:47;18.45;;;10.35;;
51382;SDS011;37475;43.358;1.248;2023-03-23T07:50:13;24.38;;;11.40;;
51382;SDS011;37475;43.358;1.248;2023-03-23T07:52:39;20.35;;;10.77;;
51382;SDS011;37475;43.358;1.248;2023-03-23T07:55:06;21.05;;;10.45;;
51382;SDS011;37475;43.358;1.248;2023-03-23T07:57:48;16.23;;;9.85;;
51382;SDS011;37475;43.358;1.248;2023-03-23T08:00:15;17.17;;;9.90;;
51382;SDS011;37475;43.358;1.248;2023-03-23T08:02:49;19.50;;;10.57;;
51382;SDS011;37475;43.358;1.248;2023-03-23T08:05:17;17.80;;;11.02;;
51382;SDS011;37475;43.358;1.248;2023-03-23T08:07:44;17.85;;;10.50;;
51382;SDS011;37475;43.358;1.248;2023-03-23T08:10:10;17.45;;;9.75;;
51382;SDS011;37475;43.358;1.248;2023-03-23T08:12:38;18.10;;;9.60;;
51382;SDS011;37475;43.358;1.248;2023-03-23T08:15:06;15.05;;;8.63;;
51382;SDS011;37475;43.358;1.248;2023-03-23T08:17:37;14.13;;;9.25;;
51382;SDS011;37475;43.358;1.248;2023-03-23T08:20:05;13.32;;;8.18;;
51382;SDS011;37475;43.358;1.248;2023-03-23T08:22:35;14.32;;;8.48;;
51382;SDS011;37475;43.358;1.248;2023-03-23T08:25:04;15.60;;;8.88;;
51382;SDS011;37475;43.358;1.248;2023-03-23T08:27:32;17.05;;;8.05;;
51382;SDS011;37475;43.358;1.248;2023-03-23T08:29:58;14.27;;;8.30;;
51382;SDS011;37475;43.358;1.248;2023-03-23T08:32:24;17.88;;;8.73;;
51382;SDS011;37475;43.358;1.248;2023-03-23T08:34:51;14.00;;;9.13;;
51382;SDS011;37475;43.358;1.248;2023-03-23T08:37:18;13.98;;;9.30;;
51382;SDS011;37475;43.358;1.248;2023-03-23T08:39:43;15.13;;;8.45;;
51382;SDS011;37475;43.358;1.248;2023-03-23T08:42:09;17.20;;;9.07;;
51382;SDS011;37475;43.358;1.248;2023-03-23T08:44:36;14.95;;;8.80;;
51382;SDS011;37475;43.358;1.248;2023-03-23T08:47:03;14.85;;;8.65;;
51382;SDS011;37475;43.358;1.248;2023-03-23T08:49:30;13.27;;;8.77;;
51382;SDS011;37475;43.358;1.248;2023-03-23T08:51:59;16.58;;;8.88;;
51382;SDS011;37475;43.358;1.248;2023-03-23T08:54:25;16.08;;;8.82;;
51382;SDS011;37475;43.358;1.248;2023-03-23T08:56:51;15.60;;;8.55;;
51382;SDS011;37475;43.358;1.248;2023-03-23T08:59:17;17.92;;;8.60;;
51382;SDS011;37475;43.358;1.248;2023-03-23T09:01:43;21.67;;;9.38;;
51382;SDS011;37475;43.358;1.248;2023-03-23T09:04:09;19.30;;;9.40;;
51382;SDS011;37475;43.358;1.248;2023-03-23T09:06:35;15.48;;;7.93;;
51382;SDS011;37475;43.358;1.248;2023-03-23T09:09:02;14.50;;;7.57;;
51382;SDS011;37475;43.358;1.248;2023-03-23T09:11:32;12.90;;;7.72;;
51382;SDS011;37475;43.358;1.248;2023-03-23T09:13:59;13.70;;;8.45;;
51382;SDS011;37475;43.358;1.248;2023-03-23T09:16:26;14.68;;;7.25;;
51382;SDS011;37475;43.358;1.248;2023-03-23T09:18:53;13.65;;;8.18;;
51382;SDS011;37475;43.358;1.248;2023-03-23T09:21:20;12.20;;;7.30;;
51382;SDS011;37475;43.358;1.248;2023-03-23T09:23:46;12.75;;;7.78;;
51382;SDS011;37475;43.358;1.248;2023-03-23T09:26:13;20.15;;;8.02;;
51382;SDS011;37475;43.358;1.248;2023-03-23T09:28:39;14.65;;;7.97;;
51382;SDS011;37475;43.358;1.248;2023-03-23T09:31:05;13.00;;;7.32;;
51382;SDS011;37475;43.358;1.248;2023-03-23T09:33:31;14.93;;;7.90;;
51382;SDS011;37475;43.358;1.248;2023-03-23T09:36:01;29.15;;;7.68;;
51382;SDS011;37475;43.358;1.248;2023-03-23T09:38:29;11.80;;;6.78;;
51382;SDS011;37475;43.358;1.248;2023-03-23T09:50:27;13.83;;;6.90;;
51382;SDS011;37475;43.358;1.248;2023-03-23T09:53:20;16.92;;;7.22;;
51382;SDS011;37475;43.358;1.248;2023-03-23T09:55:59;11.65;;;6.30;;
51382;SDS011;37475;43.358;1.248;2023-03-23T10:06:50;11.15;;;6.70;;
51382;SDS011;37475;43.358;1.248;2023-03-23T10:09:17;14.35;;;6.38;;
51382;SDS011;37475;43.358;1.248;2023-03-23T10:12:06;8.85;;;5.25;;
51382;SDS011;37475;43.358;1.248;2023-03-23T10:26:00;8.55;;;4.85;;
51382;SDS011;37475;43.358;1.248;2023-03-23T10:31:18;11.02;;;5.13;;
51382;SDS011;37475;43.358;1.248;2023-03-23T10:33:49;10.52;;;5.57;;
51382;SDS011;37475;43.358;1.248;2023-03-23T10:36:34;15.82;;;5.85;;
51382;SDS011;37475;43.358;1.248;2023-03-23T10:41:43;10.40;;;5.00;;
51382;SDS011;37475;43.358;1.248;2023-03-23T10:44:09;8.48;;;4.68;;
51382;SDS011;37475;43.358;1.248;2023-03-23T10:46:56;8.27;;;4.80;;
51382;SDS011;37475;43.358;1.248;2023-03-23T10:49:52;11.35;;;4.95;;
51382;SDS011;37475;43.358;1.248;2023-03-23T10:52:32;6.60;;;4.47;;
51382;SDS011;37475;43.358;1.248;2023-03-23T10:55:07;6.40;;;4.38;;
51382;SDS011;37475;43.358;1.248;2023-03-23T10:57:39;8.50;;;4.70;;
51382;SDS011;37475;43.358;1.248;2023-03-23T11:02:46;9.32;;;3.80;;
51382;SDS011;37475;43.358;1.248;2023-03-23T11:05:25;16.27;;;3.80;;
51382;SDS011;37475;43.358;1.248;2023-03-23T11:08:13;16.00;;;4.55;;
51382;SDS011;37475;43.358;1.248;2023-03-23T11:10:47;6.95;;;4.00;;
51382;SDS011;37475;43.358;1.248;2023-03-23T11:13:18;6.70;;;3.83;;
51382;SDS011;37475;43.358;1.248;2023-03-23T11:15:47;10.27;;;3.80;;
51382;SDS011;37475;43.358;1.248;2023-03-23T11:18:21;7.07;;;4.20;;
51382;SDS011;37475;43.358;1.248;2023-03-23T11:21:11;7.68;;;3.83;;
51382;SDS011;37475;43.358;1.248;2023-03-23T11:23:40;6.65;;;3.70;;
51382;SDS011;37475;43.358;1.248;2023-03-23T11:26:15;6.32;;;3.80;;
51382;SDS011;37475;43.358;1.248;2023-03-23T11:31:39;11.60;;;3.70;;
51382;SDS011;37475;43.358;1.248;2023-03-23T11:34:09;5.95;;;3.88;;
51382;SDS011;37475;43.358;1.248;2023-03-23T11:36:43;5.57;;;3.63;;
51382;SDS011;37475;43.358;1.248;2023-03-23T11:39:21;5.63;;;3.47;;
51382;SDS011;37475;43.358;1.248;2023-03-23T11:42:00;7.20;;;3.67;;
51382;SDS011;37475;43.358;1.248;2023-03-23T11:44:40;6.88;;;3.60;;
51382;SDS011;37475;43.358;1.248;2023-03-23T11:50:23;6.47;;;4.40;;
51382;SDS011;37475;43.358;1.248;2023-03-23T11:55:56;6.50;;;4.55;;
51382;SDS011;37475;43.358;1.248;2023-03-23T11:58:29;8.32;;;4.60;;
51382;SDS011;37475;43.358;1.248;2023-03-23T12:01:12;6.85;;;3.95;;
51382;SDS011;37475;43.358;1.248;2023-03-23T12:12:49;7.72;;;4.40;;
51382;SDS011;37475;43.358;1.248;2023-03-23T12:16:01;9.85;;;4.35;;
51382;SDS011;37475;43.358;1.248;2023-03-23T12:18:47;12.43;;;4.38;;
51382;SDS011;37475;43.358;1.248;2023-03-23T12:36:24;12.88;;;4.45;;
51382;SDS011;37475;43.358;1.248;2023-03-23T12:48:02;9.63;;;4.65;;
51382;SDS011;37475;43.358;1.248;2023-03-23T12:50:44;8.93;;;5.05;;
51382;SDS011;37475;43.358;1.248;2023-03-23T12:56:14;9.70;;;4.75;;
51382;SDS011;37475;43.358;1.248;2023-03-23T12:58:55;8.23;;;4.80;;
51382;SDS011;37475;43.358;1.248;2023-03-23T13:01:46;7.70;;;4.07;;
51382;SDS011;37475;43.358;1.248;2023-03-23T13:04:24;8.48;;;4.85;;
51382;SDS011;37475;43.358;1.248;2023-03-23T13:07:02;8.48;;;4.55;;
51382;SDS011;37475;43.358;1.248;2023-03-23T13:12:23;9.20;;;4.63;;
51382;SDS011;37475;43.358;1.248;2023-03-23T13:14:53;9.18;;;4.50;;
51382;SDS011;37475;43.358;1.248;2023-03-23T13:28:32;10.05;;;4.78;;
51382;SDS011;37475;43.358;1.248;2023-03-23T13:31:30;14.15;;;4.53;;
51382;SDS011;37475;43.358;1.248;2023-03-23T13:34:05;11.48;;;4.32;;
51382;SDS011;37475;43.358;1.248;2023-03-23T13:36:43;11.63;;;5.18;;
51382;SDS011;37475;43.358;1.248;2023-03-23T13:39:36;8.25;;;4.50;;
51382;SDS011;37475;43.358;1.248;2023-03-23T13:42:27;9.55;;;4.60;;
51382;SDS011;37475;43.358;1.248;2023-03-23T13:50:57;13.98;;;5.70;;
51382;SDS011;37475;43.358;1.248;2023-03-23T13:53:47;12.57;;;5.25;;
51382;SDS011;37475;43.358;1.248;2023-03-23T13:56:19;11.50;;;5.38;;
51382;SDS011;37475;43.358;1.248;2023-03-23T13:59:28;8.88;;;4.90;;
51382;SDS011;37475;43.358;1.248;2023-03-23T14:04:55;9.15;;;5.28;;
51382;SDS011;37475;43.358;1.248;2023-03-23T14:07:22;10.18;;;5.40;;
51382;SDS011;37475;43.358;1.248;2023-03-23T14:09:50;10.68;;;5.10;;
51382;SDS011;37475;43.358;1.248;2023-03-23T14:12:21;12.50;;;5.78;;
51382;SDS011;37475;43.358;1.248;2023-03-23T14:14:56;8.82;;;5.40;;
51382;SDS011;37475;43.358;1.248;2023-03-23T14:17:29;10.32;;;5.93;;
51382;SDS011;37475;43.358;1.248;2023-03-23T14:20:05;9.60;;;5.65;;
51382;SDS011;37475;43.358;1.248;2023-03-23T14:22:33;11.00;;;5.97;;
51382;SDS011;37475;43.358;1.248;2023-03-23T14:25:14;9.65;;;5.68;;
51382;SDS011;37475;43.358;1.248;2023-03-23T14:27:42;14.00;;;6.25;;
51382;SDS011;37475;43.358;1.248;2023-03-23T14:30:15;9.52;;;5.80;;
51382;SDS011;37475;43.358;1.248;2023-03-23T14:32:45;10.77;;;5.70;;
51382;SDS011;37475;43.358;1.248;2023-03-23T14:35:22;11.43;;;5.70;;
51382;SDS011;37475;43.358;1.248;2023-03-23T14:37:55;16.45;;;6.30;;
51382;SDS011;37475;43.358;1.248;2023-03-23T14:40:22;14.48;;;7.07;;
51382;SDS011;37475;43.358;1.248;2023-03-23T14:42:51;15.27;;;7.07;;
51382;SDS011;37475;43.358;1.248;2023-03-23T14:45:19;16.33;;;7.20;;
51382;SDS011;37475;43.358;1.248;2023-03-23T14:47:48;16.25;;;8.05;;
51382;SDS011;37475;43.358;1.248;2023-03-23T14:50:30;14.63;;;7.65;;
51382;SDS011;37475;43.358;1.248;2023-03-23T14:53:21;15.40;;;7.72;;
51382;SDS011;37475;43.358;1.248;2023-03-23T14:56:14;16.52;;;7.88;;
51382;SDS011;37475;43.358;1.248;2023-03-23T14:58:43;16.15;;;8.27;;
51382;SDS011;37475;43.358;1.248;2023-03-23T15:01:18;11.98;;;7.35;;
51382;SDS011;37475;43.358;1.248;2023-03-23T15:04:02;14.98;;;6.88;;
51382;SDS011;37475;43.358;1.248;2023-03-23T15:06:35;16.13;;;6.90;;
51382;SDS011;37475;43.358;1.248;2023-03-23T15:09:05;17.48;;;7.47;;
51382;SDS011;37475;43.358;1.248;2023-03-23T15:11:38;13.60;;;7.40;;
51382;SDS011;37475;43.358;1.248;2023-03-23T15:14:15;15.32;;;7.50;;
51382;SDS011;37475;43.358;1.248;2023-03-23T15:16:55;11.20;;;6.57;;
51382;SDS011;37475;43.358;1.248;2023-03-23T15:19:25;11.90;;;6.90;;
51382;SDS011;37475;43.358;1.248;2023-03-23T15:22:05;12.10;;;6.72;;
51382;SDS011;37475;43.358;1.248;2023-03-23T15:24:45;42.75;;;9.40;;
51382;SDS011;37475;43.358;1.248;2023-03-23T15:32:51;26.25;;;7.53;;
51382;SDS011;37475;43.358;1.248;2023-03-23T15:35:21;13.50;;;7.10;;
51382;SDS011;37475;43.358;1.248;2023-03-23T15:38:00;14.25;;;8.15;;
51382;SDS011;37475;43.358;1.248;2023-03-23T15:40:34;14.07;;;7.30;;
51382;SDS011;37475;43.358;1.248;2023-03-23T15:46:16;12.38;;;7.22;;
51382;SDS011;37475;43.358;1.248;2023-03-23T15:48:49;13.52;;;6.68;;
51382;SDS011;37475;43.358;1.248;2023-03-23T15:51:34;17.00;;;7.30;;
51382;SDS011;37475;43.358;1.248;2023-03-23T15:54:00;13.82;;;7.32;;
51382;SDS011;37475;43.358;1.248;2023-03-23T15:56:27;12.93;;;7.00;;
51382;SDS011;37475;43.358;1.248;2023-03-23T15:58:54;16.92;;;8.95;;
51382;SDS011;37475;43.358;1.248;2023-03-23T16:01:24;21.65;;;8.20;;
51382;SDS011;37475;43.358;1.248;2023-03-23T16:03:53;11.57;;;7.07;;
51382;SDS011;37475;43.358;1.248;2023-03-23T16:06:31;17.05;;;7.50;;
51382;SDS011;37475;43.358;1.248;2023-03-23T16:08:58;12.95;;;6.75;;
51382;SDS011;37475;43.358;1.248;2023-03-23T16:11:25;10.60;;;6.15;;
51382;SDS011;37475;43.358;1.248;2023-03-23T16:13:53;14.10;;;6.50;;
51382;SDS011;37475;43.358;1.248;2023-03-23T16:16:21;11.02;;;6.40;;
51382;SDS011;37475;43.358;1.248;2023-03-23T16:18:51;13.05;;;6.97;;
51382;SDS011;37475;43.358;1.248;2023-03-23T16:21:17;14.05;;;6.20;;
51382;SDS011;37475;43.358;1.248;2023-03-23T16:23:43;11.65;;;5.95;;
51382;SDS011;37475;43.358;1.248;2023-03-23T16:26:10;16.80;;;5.97;;
51382;SDS011;37475;43.358;1.248;2023-03-23T16:28:37;13.13;;;5.38;;
51382;SDS011;37475;43.358;1.248;2023-03-23T16:31:03;10.07;;;4.75;;
51382;SDS011;37475;43.358;1.248;2023-03-23T16:33:29;11.70;;;6.25;;
51382;SDS011;37475;43.358;1.248;2023-03-23T16:35:55;12.27;;;5.18;;
51382;SDS011;37475;43.358;1.248;2023-03-23T16:38:22;16.30;;;5.93;;
51382;SDS011;37475;43.358;1.248;2023-03-23T16:40:48;12.35;;;5.35;;
51382;SDS011;37475;43.358;1.248;2023-03-23T16:43:14;12.77;;;5.35;;
51382;SDS011;37475;43.358;1.248;2023-03-23T16:45:41;12.18;;;5.75;;
51382;SDS011;37475;43.358;1.248;2023-03-23T16:48:09;12.93;;;5.80;;
51382;SDS011;37475;43.358;1.248;2023-03-23T16:50:36;11.32;;;5.70;;
51382;SDS011;37475;43.358;1.248;2023-03-23T16:53:03;13.27;;;6.10;;
51382;SDS011;37475;43.358;1.248;2023-03-23T16:55:30;12.98;;;6.03;;
51382;SDS011;37475;43.358;1.248;2023-03-23T16:57:57;12.27;;;5.75;;
51382;SDS011;37475;43.358;1.248;2023-03-23T17:00:23;9.60;;;5.68;;
51382;SDS011;37475;43.358;1.248;2023-03-23T17:02:51;16.27;;;6.13;;
51382;SDS011;37475;43.358;1.248;2023-03-23T17:05:21;12.63;;;6.43;;
51382;SDS011;37475;43.358;1.248;2023-03-23T17:07:50;11.63;;;6.15;;
51382;SDS011;37475;43.358;1.248;2023-03-23T17:10:17;10.35;;;6.05;;
51382;SDS011;37475;43.358;1.248;2023-03-23T17:12:43;12.90;;;6.53;;